createdAt,value
2023-04-24T00:02:04.984Z,3.33
2023-04-24T00:04:33.180Z,5.63
2023-04-24T00:07:01.520Z,3.30
2023-04-24T00:09:28.838Z,3.20
2023-04-24T00:11:57.354Z,3.40
2023-04-24T00:14:24.677Z,3.28
2023-04-24T00:16:52.195Z,4.80
2023-04-24T00:19:22.712Z,3.58
2023-04-24T00:21:53.354Z,7.47
2023-04-24T00:24:20.567Z,3.78
2023-04-24T00:26:52.663Z,5.25
2023-04-24T00:29:19.832Z,3.65
2023-04-24T00:31:48.002Z,4.53
2023-04-24T00:34:15.578Z,5.22
2023-04-24T00:36:43.128Z,5.35
2023-04-24T00:39:10.641Z,5.13
2023-04-24T00:41:40.864Z,5.05
2023-04-24T00:44:08.585Z,6.85
2023-04-24T00:46:36.430Z,4.75
2023-04-24T00:49:05.128Z,4.68
2023-04-24T00:51:34.054Z,4.80
2023-04-24T00:54:01.953Z,3.67
2023-04-24T00:56:30.513Z,4.85
2023-04-24T00:58:58.050Z,4.07
2023-04-24T01:01:25.353Z,5.93
2023-04-24T01:03:54.371Z,7.32
2023-04-24T01:06:28.696Z,8.45
2023-04-24T01:08:56.848Z,7.25
2023-04-24T01:11:24.090Z,5.57
2023-04-24T01:13:53.890Z,5.47
2023-04-24T01:16:24.031Z,6.30
2023-04-24T01:18:51.318Z,8.25
2023-04-24T01:21:19.420Z,5.43
2023-04-24T01:23:47.106Z,5.05
2023-04-24T01:26:32.651Z,4.55
2023-04-24T01:28:59.998Z,5.63
2023-04-24T01:31:27.856Z,5.00
2023-04-24T01:33:56.105Z,3.92
2023-04-24T01:36:25.936Z,7.55
2023-04-24T01:38:54.568Z,5.13
2023-04-24T01:41:22.075Z,7.55
2023-04-24T01:43:50.385Z,6.47
2023-04-24T01:46:18.094Z,5.15
2023-04-24T01:48:47.005Z,8.27
2023-04-24T01:51:14.453Z,5.80
2023-04-24T01:53:41.878Z,5.63
2023-04-24T01:56:09.552Z,5.20
2023-04-24T01:58:37.502Z,6.00
2023-04-24T02:01:05.273Z,5.47
2023-04-24T02:03:34.916Z,6.20
2023-04-24T02:09:25.903Z,5.13
2023-04-24T02:15:46.339Z,5.13
2023-04-24T02:18:14.313Z,5.13
2023-04-24T02:20:42.843Z,6.47
2023-04-24T02:23:10.816Z,5.72
2023-04-24T02:29:19.488Z,4.70
2023-04-24T02:31:46.877Z,6.32
2023-04-24T02:34:14.409Z,9.70
2023-04-24T02:39:28.497Z,6.53
2023-04-24T02:41:55.797Z,6.60
2023-04-24T02:44:23.852Z,6.65
2023-04-24T02:46:51.112Z,5.57
2023-04-24T02:49:18.532Z,4.45
2023-04-24T02:51:45.865Z,5.22
2023-04-24T02:54:13.825Z,5.63
2023-04-24T02:56:42.104Z,6.97
2023-04-24T02:59:09.894Z,7.65
2023-04-24T03:01:37.410Z,4.53
2023-04-24T03:04:05.368Z,5.15
2023-04-24T03:06:34.159Z,10.48
2023-04-24T03:09:01.649Z,9.73
2023-04-24T03:11:28.957Z,6.07
2023-04-24T03:13:56.116Z,5.45
2023-04-24T03:16:23.324Z,5.60
2023-04-24T03:18:50.875Z,8.07
2023-04-24T03:21:18.162Z,4.10
2023-04-24T03:23:45.757Z,7.03
2023-04-24T03:26:13.093Z,6.10
2023-04-24T03:28:40.307Z,13.68
2023-04-24T03:31:07.463Z,5.03
2023-04-24T03:33:35.080Z,4.75
2023-04-24T03:36:02.528Z,3.95
2023-04-24T03:38:29.763Z,5.03
2023-04-24T03:40:57.553Z,7.47
2023-04-24T03:43:25.110Z,7.13
2023-04-24T03:45:52.597Z,4.55
2023-04-24T03:52:01.784Z,6.72
2023-04-24T03:54:29.132Z,4.57
2023-04-24T03:56:56.370Z,4.18
2023-04-24T03:59:23.790Z,2.80
2023-04-24T04:01:51.160Z,3.17
2023-04-24T04:04:18.431Z,4.10
2023-04-24T04:06:45.958Z,4.95
2023-04-24T04:09:13.755Z,2.92
2023-04-24T04:11:41.549Z,1.95
2023-04-24T04:14:08.974Z,2.40
2023-04-24T04:16:37.799Z,2.63
2023-04-24T04:19:04.885Z,1.50
2023-04-24T04:21:34.400Z,1.65
2023-04-24T04:24:01.512Z,2.00
2023-04-24T04:26:32.950Z,2.50
2023-04-24T04:29:05.062Z,4.35
2023-04-24T04:31:32.534Z,1.67
2023-04-24T04:34:00.258Z,1.67
2023-04-24T04:36:27.485Z,2.13
2023-04-24T04:38:56.081Z,1.55
2023-04-24T04:41:23.551Z,1.48
2023-04-24T04:43:51.288Z,2.05
2023-04-24T04:46:18.953Z,2.80
2023-04-24T04:48:47.104Z,0.73
2023-04-24T04:51:14.324Z,0.98
2023-04-24T04:53:41.631Z,2.40
2023-04-24T04:56:09.233Z,1.23
2023-04-24T04:58:36.336Z,1.20
2023-04-24T05:01:03.854Z,2.78
2023-04-24T05:03:31.285Z,3.63
2023-04-24T05:05:59.391Z,3.88
2023-04-24T05:08:27.811Z,1.23
2023-04-24T05:10:56.809Z,1.15
2023-04-24T05:13:35.749Z,1.95
2023-04-24T05:16:06.574Z,0.88
2023-04-24T05:18:34.181Z,0.90
2023-04-24T05:21:01.782Z,1.27
2023-04-24T05:23:29.018Z,0.70
2023-04-24T05:25:56.180Z,3.00
2023-04-24T05:28:23.519Z,1.15
2023-04-24T05:30:51.064Z,0.75
2023-04-24T05:33:18.530Z,0.80
2023-04-24T05:35:47.798Z,0.73
2023-04-24T05:38:19.211Z,1.08
2023-04-24T05:40:49.254Z,0.60
2023-04-24T05:43:16.648Z,1.13
2023-04-24T05:45:44.124Z,2.97
2023-04-24T05:48:11.372Z,1.13
2023-04-24T05:50:38.552Z,2.85
2023-04-24T05:53:06.206Z,2.38
2023-04-24T05:55:33.285Z,1.67
2023-04-24T05:58:00.709Z,2.15
2023-04-24T06:00:28.146Z,3.30
2023-04-24T06:02:56.817Z,1.40
2023-04-24T06:05:24.551Z,0.75
2023-04-24T06:07:52.052Z,0.80
2023-04-24T06:10:19.398Z,0.77
2023-04-24T06:12:46.683Z,3.03
2023-04-24T06:15:31.898Z,1.92
2023-04-24T06:18:00.630Z,1.02
2023-04-24T06:20:28.461Z,3.72
2023-04-24T06:22:55.774Z,1.25
2023-04-24T06:25:22.949Z,1.20
2023-04-24T06:27:50.406Z,10.23
2023-04-24T06:30:17.614Z,2.55
2023-04-24T06:32:44.809Z,2.33
2023-04-24T06:35:13.539Z,1.75
2023-04-24T06:37:41.712Z,3.13
2023-04-24T06:40:09.517Z,0.75
2023-04-24T06:42:37.422Z,0.50
2023-04-24T06:45:06.347Z,0.82
2023-04-24T06:47:33.538Z,1.42
2023-04-24T06:50:00.735Z,1.98
2023-04-24T06:52:27.914Z,1.42
2023-04-24T06:55:02.686Z,1.35
2023-04-24T06:57:30.375Z,3.63
2023-04-24T06:59:57.673Z,1.05
2023-04-24T07:02:25.366Z,2.92
2023-04-24T07:04:54.026Z,0.55
2023-04-24T07:07:23.627Z,3.75
2023-04-24T07:09:52.755Z,0.90
2023-04-24T07:12:22.118Z,3.70
2023-04-24T07:14:49.452Z,1.52
2023-04-24T07:17:21.155Z,0.60
2023-04-24T07:19:48.248Z,4.00
2023-04-24T07:22:18.232Z,2.72
2023-04-24T07:24:45.874Z,1.08
2023-04-24T07:27:13.433Z,0.77
2023-04-24T07:29:41.896Z,0.82
2023-04-24T07:32:10.526Z,0.68
2023-04-24T07:34:38.004Z,1.42
2023-04-24T07:37:05.425Z,0.70
2023-04-24T07:39:32.808Z,0.68
2023-04-24T07:42:00.555Z,0.75
2023-04-24T07:44:27.997Z,2.55
2023-04-24T07:46:55.857Z,0.85
2023-04-24T07:49:23.101Z,1.33
2023-04-24T07:51:50.993Z,0.57
2023-04-24T07:54:18.195Z,1.42
2023-04-24T07:56:45.738Z,0.68
2023-04-24T07:59:13.092Z,1.00
2023-04-24T08:01:40.239Z,0.63
2023-04-24T08:04:07.983Z,1.00
2023-04-24T08:06:35.529Z,2.22
2023-04-24T08:09:02.862Z,3.63
2023-04-24T08:11:30.112Z,1.30
2023-04-24T08:13:57.404Z,1.27
2023-04-24T08:16:27.463Z,1.90
2023-04-24T08:18:57.652Z,0.70
2023-04-24T08:21:24.963Z,0.63
2023-04-24T08:23:52.171Z,0.55
2023-04-24T08:26:19.451Z,0.43
2023-04-24T08:28:49.021Z,1.00
2023-04-24T08:31:16.529Z,2.67
2023-04-24T08:33:46.329Z,1.02
2023-04-24T08:36:13.596Z,2.05
2023-04-24T08:38:43.215Z,0.68
2023-04-24T08:41:11.533Z,1.45
2023-04-24T08:43:39.798Z,0.47
2023-04-24T08:46:11.141Z,1.85
2023-04-24T08:48:42.962Z,0.95
2023-04-24T08:51:10.595Z,0.60
2023-04-24T08:53:38.059Z,0.73
2023-04-24T08:56:05.696Z,0.70
2023-04-24T08:58:33.349Z,3.50
2023-04-24T09:01:01.819Z,1.02
2023-04-24T09:03:30.425Z,0.75
2023-04-24T09:05:59.459Z,3.35
2023-04-24T09:08:28.673Z,1.20
2023-04-24T09:10:55.885Z,0.73
2023-04-24T09:13:23.387Z,3.08
2023-04-24T09:15:50.750Z,0.73
2023-04-24T09:18:19.048Z,1.40
2023-04-24T09:21:06.378Z,1.25
2023-04-24T09:23:33.684Z,2.67
2023-04-24T09:26:02.611Z,1.27
2023-04-24T09:28:40.893Z,1.30
2023-04-24T09:31:13.379Z,1.33
2023-04-24T09:33:44.041Z,1.20
2023-04-24T09:36:11.323Z,1.60
2023-04-24T09:38:39.444Z,1.17
2023-04-24T09:41:08.502Z,3.85
2023-04-24T09:43:37.122Z,1.88
2023-04-24T09:46:11.147Z,1.10
2023-04-24T09:48:39.110Z,2.72
2023-04-24T09:51:08.580Z,1.45
2023-04-24T09:53:35.999Z,2.88
2023-04-24T09:56:14.141Z,1.27
2023-04-24T09:58:41.470Z,2.47
2023-04-24T10:01:08.814Z,2.05
2023-04-24T10:03:36.611Z,1.65
2023-04-24T10:06:12.567Z,4.13
2023-04-24T10:08:39.888Z,2.20
2023-04-24T10:11:08.662Z,4.10
2023-04-24T10:13:36.701Z,1.50
2023-04-24T10:16:05.228Z,1.67
2023-04-24T10:18:34.069Z,2.38
2023-04-24T10:21:02.562Z,4.30
2023-04-24T10:23:30.338Z,2.22
2023-04-24T10:25:58.305Z,2.45
2023-04-24T10:28:27.359Z,2.72
2023-04-24T10:30:56.586Z,4.30
2023-04-24T10:33:25.432Z,3.15
2023-04-24T10:35:53.241Z,4.10
2023-04-24T10:38:26.339Z,6.07
2023-04-24T10:40:58.724Z,3.10
2023-04-24T10:43:26.572Z,3.40
2023-04-24T10:46:04.814Z,3.60
2023-04-24T10:48:33.801Z,2.35
2023-04-24T10:51:03.396Z,6.60
2023-04-24T10:53:31.576Z,5.53
2023-04-24T10:56:02.726Z,4.80
2023-04-24T10:58:53.531Z,3.58
2023-04-24T11:01:28.120Z,3.60
2023-04-24T11:04:01.533Z,4.63
2023-04-24T11:06:37.346Z,4.15
2023-04-24T11:09:13.905Z,3.00
2023-04-24T11:11:46.790Z,4.22
2023-04-24T11:14:18.415Z,3.45
2023-04-24T11:16:56.429Z,3.90
2023-04-24T11:19:27.520Z,5.93
2023-04-24T11:22:04.307Z,5.57
2023-04-24T11:24:39.322Z,4.03
2023-04-24T11:27:15.555Z,3.28
2023-04-24T11:29:47.059Z,3.88
2023-04-24T11:32:20.813Z,5.85
2023-04-24T11:34:58.445Z,5.25
2023-04-24T11:37:30.939Z,4.53
2023-04-24T11:40:00.434Z,4.95
2023-04-24T11:42:29.231Z,3.95
2023-04-24T11:44:57.348Z,4.25
2023-04-24T11:47:38.366Z,11.73
2023-04-24T11:50:08.339Z,4.30
2023-04-24T11:52:39.330Z,3.63
2023-04-24T11:55:09.987Z,4.68
2023-04-24T11:57:37.761Z,5.03
2023-04-24T12:00:09.653Z,3.58
2023-04-24T12:02:39.529Z,2.90
2023-04-24T12:05:08.110Z,3.03
2023-04-24T12:07:49.735Z,5.53
2023-04-24T12:10:22.328Z,2.65
2023-04-24T12:12:51.634Z,4.57
2023-04-24T12:15:20.474Z,2.45
2023-04-24T12:17:48.261Z,2.95
2023-04-24T12:20:16.465Z,3.33
2023-04-24T12:22:58.601Z,84.07
2023-04-24T12:25:28.277Z,8.10
2023-04-24T12:28:11.900Z,34.97
2023-04-24T12:30:49.658Z,62.35
2023-04-24T12:33:21.652Z,4.35
2023-04-24T12:35:52.687Z,38.65
2023-04-24T12:38:24.193Z,15.10
2023-04-24T12:41:05.364Z,9.73
2023-04-24T12:43:35.936Z,5.43
2023-04-24T12:46:04.042Z,5.18
2023-04-24T12:48:32.082Z,12.90
2023-04-24T12:51:02.519Z,4.63
2023-04-24T12:53:33.083Z,2.53
2023-04-24T12:56:00.667Z,4.20
2023-04-24T12:58:28.088Z,2.08
2023-04-24T13:00:55.962Z,2.42
2023-04-24T13:03:24.013Z,2.28
2023-04-24T13:05:52.477Z,3.08
2023-04-24T13:08:19.800Z,3.45
2023-04-24T13:10:47.321Z,3.83
2023-04-24T13:13:14.465Z,2.22
2023-04-24T13:15:41.772Z,1.88
2023-04-24T13:18:08.891Z,4.90
2023-04-24T13:20:36.970Z,2.42
2023-04-24T13:23:04.881Z,45.67
2023-04-24T13:25:38.599Z,9.23
2023-04-24T13:28:06.056Z,1.40
2023-04-24T13:30:33.549Z,3.20
2023-04-24T13:33:00.775Z,1.65
2023-04-24T13:35:28.508Z,2.22
2023-04-24T13:37:55.720Z,2.28
2023-04-24T13:40:22.997Z,4.47
2023-04-24T13:42:50.726Z,2.40
2023-04-24T13:45:25.349Z,2.30
2023-04-24T13:47:55.681Z,2.33
2023-04-24T13:50:23.052Z,2.17
2023-04-24T13:52:50.879Z,2.40
2023-04-24T13:55:18.196Z,2.53
2023-04-24T13:57:45.418Z,1.85
2023-04-24T14:00:15.878Z,1.77
2023-04-24T14:02:43.197Z,7.95
2023-04-24T14:05:12.373Z,1.63
2023-04-24T14:07:39.566Z,2.35
2023-04-24T14:10:07.339Z,1.65
2023-04-24T14:12:34.995Z,2.03
2023-04-24T14:15:02.954Z,2.42
2023-04-24T14:17:32.686Z,2.00
2023-04-24T14:20:01.717Z,2.20
2023-04-24T14:22:29.974Z,1.23
2023-04-24T14:24:57.337Z,1.85
2023-04-24T14:27:24.591Z,9.20
2023-04-24T14:29:51.737Z,1.27
2023-04-24T14:32:19.128Z,1.90
2023-04-24T14:34:46.309Z,1.08
2023-04-24T14:37:14.739Z,1.98
2023-04-24T14:39:43.334Z,1.27
2023-04-24T14:42:13.240Z,1.50
2023-04-24T14:44:40.729Z,1.23
2023-04-24T14:47:11.071Z,1.10
2023-04-24T14:49:38.845Z,0.77
2023-04-24T14:52:08.893Z,1.17
2023-04-24T14:54:36.341Z,1.55
2023-04-24T14:57:03.696Z,1.00
2023-04-24T14:59:32.775Z,1.02
2023-04-24T15:02:14.926Z,5.30
2023-04-24T15:04:43.277Z,0.90
2023-04-24T15:07:10.683Z,1.45
2023-04-24T15:09:37.833Z,1.63
2023-04-24T15:12:05.062Z,1.10
2023-04-24T15:14:32.353Z,1.13
2023-04-24T15:16:59.717Z,1.80
2023-04-24T15:19:26.870Z,3.10
2023-04-24T15:21:54.174Z,0.60
2023-04-24T15:24:21.543Z,0.98
2023-04-24T15:26:48.829Z,1.58
2023-04-24T15:29:16.659Z,2.70
2023-04-24T15:31:44.218Z,2.28
2023-04-24T15:34:11.332Z,0.50
2023-04-24T15:36:38.988Z,0.30
2023-04-24T15:39:08.401Z,0.93
2023-04-24T15:41:36.733Z,0.90
2023-04-24T15:44:04.562Z,0.20
2023-04-24T15:46:32.092Z,0.20
2023-04-24T15:49:02.898Z,1.45
2023-04-24T15:51:33.064Z,0.30
2023-04-24T15:54:00.324Z,1.70
2023-04-24T15:56:31.648Z,0.73
2023-04-24T15:58:59.196Z,0.52
2023-04-24T16:01:26.752Z,1.05
2023-04-24T16:03:54.187Z,0.52
2023-04-24T16:06:21.739Z,0.63
2023-04-24T16:08:49.339Z,0.50
2023-04-24T16:11:16.866Z,0.65
2023-04-24T16:13:44.142Z,0.60
2023-04-24T16:16:11.455Z,3.03
2023-04-24T16:18:38.764Z,0.88
2023-04-24T16:21:06.575Z,1.02
2023-04-24T16:23:33.608Z,0.77
2023-04-24T16:26:01.330Z,0.63
2023-04-24T16:28:28.664Z,0.35
2023-04-24T16:30:55.926Z,0.40
2023-04-24T16:33:23.663Z,0.57
2023-04-24T16:35:51.357Z,0.50
2023-04-24T16:38:18.759Z,0.75
2023-04-24T16:40:45.968Z,2.00
2023-04-24T16:43:13.365Z,0.65
2023-04-24T16:45:40.529Z,0.52
2023-04-24T16:48:08.293Z,2.10
2023-04-24T16:50:35.462Z,1.50
2023-04-24T16:53:02.646Z,1.67
2023-04-24T16:55:29.914Z,2.35
2023-04-24T16:57:57.378Z,1.48
2023-04-24T17:00:25.278Z,3.13
2023-04-24T17:02:52.541Z,3.13
2023-04-24T17:05:21.423Z,1.55
2023-04-24T17:07:48.714Z,2.45
2023-04-24T17:10:16.213Z,1.92
2023-04-24T17:12:43.668Z,1.92
2023-04-24T17:15:11.921Z,2.55
2023-04-24T17:17:39.645Z,4.97
2023-04-24T17:20:18.733Z,2.78
2023-04-24T17:22:49.769Z,2.47
2023-04-24T17:25:17.237Z,2.47
2023-04-24T17:27:47.382Z,3.13
2023-04-24T17:30:15.304Z,3.83
2023-04-24T17:32:42.844Z,5.18
2023-04-24T17:35:11.240Z,2.40
2023-04-24T17:37:38.773Z,1.65
2023-04-24T17:40:07.108Z,1.38
2023-04-24T17:42:38.229Z,1.40
2023-04-24T17:45:06.135Z,2.22
2023-04-24T17:47:33.425Z,1.17
2023-04-24T17:50:01.037Z,5.15
2023-04-24T17:52:28.382Z,2.10
2023-04-24T17:54:55.900Z,1.33
2023-04-24T17:57:23.087Z,2.60
2023-04-24T17:59:50.458Z,2.28
2023-04-24T18:02:17.604Z,2.78
2023-04-24T18:04:45.237Z,1.75
2023-04-24T18:07:12.599Z,4.53
2023-04-24T18:09:40.096Z,2.08
2023-04-24T18:12:07.570Z,2.53
2023-04-24T18:14:34.734Z,1.17
2023-04-24T18:17:02.098Z,1.98
2023-04-24T18:19:29.606Z,3.63
2023-04-24T18:21:56.811Z,1.83
2023-04-24T18:24:24.536Z,2.50
2023-04-24T18:26:51.735Z,3.55
2023-04-24T18:29:21.895Z,4.22
2023-04-24T18:31:49.872Z,2.33
2023-04-24T18:34:17.122Z,2.83
2023-04-24T18:36:44.641Z,2.65
2023-04-24T18:39:11.861Z,4.85
2023-04-24T18:41:39.200Z,5.38
2023-04-24T18:44:07.120Z,2.40
2023-04-24T18:46:38.214Z,2.33
2023-04-24T18:49:05.578Z,2.85
2023-04-24T18:51:40.341Z,4.45
2023-04-24T18:54:14.439Z,4.97
2023-04-24T18:56:41.838Z,4.88
2023-04-24T18:59:10.945Z,6.40
2023-04-24T19:01:39.342Z,4.32
2023-04-24T19:04:06.815Z,7.10
2023-04-24T19:06:34.133Z,6.80
2023-04-24T19:09:01.520Z,6.32
2023-04-24T19:11:28.941Z,3.20
2023-04-24T19:13:57.490Z,5.30
2023-04-24T19:16:26.130Z,7.43
2023-04-24T19:18:53.352Z,4.30
2023-04-24T19:21:21.164Z,7.63
2023-04-24T19:23:50.547Z,6.05
2023-04-24T19:26:18.088Z,9.18
2023-04-24T19:28:45.626Z,5.47
2023-04-24T19:31:12.752Z,39.83
2023-04-24T19:33:39.924Z,91.63
2023-04-24T19:36:07.734Z,13.90
2023-04-24T19:38:34.884Z,16.77
2023-04-24T19:41:02.381Z,9.18
2023-04-24T19:43:29.552Z,206.10
2023-04-24T19:45:58.199Z,106.30
2023-04-24T19:48:26.255Z,88.22
2023-04-24T19:50:53.860Z,132.45
2023-04-24T19:53:22.480Z,106.43
2023-04-24T19:55:49.442Z,80.45
2023-04-24T19:58:16.849Z,106.95
2023-04-24T20:00:44.276Z,49.22
2023-04-24T20:03:21.694Z,127.43
2023-04-24T20:05:59.160Z,71.75
2023-04-24T20:08:26.579Z,18.65
2023-04-24T20:10:54.664Z,15.35
2023-04-24T20:13:22.111Z,7.70
2023-04-24T20:15:49.494Z,12.27
2023-04-24T20:18:16.914Z,8.48
2023-04-24T20:20:44.313Z,6.80
2023-04-24T20:23:11.643Z,9.35
2023-04-24T20:25:38.891Z,9.25
2023-04-24T20:28:06.385Z,10.18
2023-04-24T20:30:33.656Z,4.47
2023-04-24T20:33:01.039Z,8.85
2023-04-24T20:35:28.454Z,5.43
2023-04-24T20:37:55.728Z,6.10
2023-04-24T20:40:23.689Z,7.22
2023-04-24T20:42:51.598Z,5.07
2023-04-24T20:45:19.361Z,6.82
2023-04-24T20:47:48.056Z,6.28
2023-04-24T20:50:18.996Z,5.90
2023-04-24T20:52:46.529Z,10.75
2023-04-24T20:55:14.262Z,4.47
2023-04-24T20:57:41.690Z,4.10
2023-04-24T21:00:09.658Z,6.75
2023-04-24T21:02:40.202Z,7.47
2023-04-24T21:05:08.139Z,3.97
2023-04-24T21:07:35.566Z,9.77
2023-04-24T21:10:03.242Z,4.95
2023-04-24T21:12:31.766Z,2.88
2023-04-24T21:14:59.345Z,8.00
2023-04-24T21:17:26.670Z,4.20
2023-04-24T21:19:53.889Z,7.82
2023-04-24T21:22:21.952Z,6.05
2023-04-24T21:24:49.270Z,6.20
2023-04-24T21:27:16.709Z,7.63
2023-04-24T21:29:44.318Z,9.27
2023-04-24T21:32:11.819Z,5.53
2023-04-24T21:34:39.059Z,6.60
2023-04-24T21:37:06.226Z,5.38
2023-04-24T21:39:33.671Z,5.28
2023-04-24T21:42:00.835Z,5.40
2023-04-24T21:44:28.188Z,5.82
2023-04-24T21:46:55.889Z,3.97
2023-04-24T21:49:23.185Z,4.85
2023-04-24T21:51:50.675Z,5.38
2023-04-24T21:54:18.725Z,6.90
2023-04-24T21:56:46.109Z,6.60
2023-04-24T21:59:14.155Z,6.22
2023-04-24T22:01:41.593Z,4.60
2023-04-24T22:04:08.913Z,3.20
2023-04-24T22:06:36.780Z,4.28
2023-04-24T22:09:04.854Z,15.02
2023-04-24T22:11:32.554Z,11.32
2023-04-24T22:14:00.233Z,5.40
2023-04-24T22:16:29.094Z,9.73
2023-04-24T22:18:58.331Z,3.88
2023-04-24T22:21:25.499Z,5.63
2023-04-24T22:23:53.104Z,5.70
2023-04-24T22:26:20.724Z,6.32
2023-04-24T22:28:48.442Z,10.18
2023-04-24T22:31:16.210Z,11.98
2023-04-24T22:33:47.263Z,4.68
2023-04-24T22:36:15.060Z,10.90
2023-04-24T22:38:44.700Z,7.15
2023-04-24T22:41:12.138Z,7.85
2023-04-24T22:43:39.694Z,5.45
2023-04-24T22:46:06.901Z,11.40
2023-04-24T22:48:34.966Z,5.75
2023-04-24T22:51:03.077Z,9.48
2023-04-24T22:53:31.090Z,5.40
2023-04-24T22:55:58.887Z,4.07
2023-04-24T22:58:26.298Z,9.88
2023-04-24T23:00:53.522Z,9.98
2023-04-24T23:03:21.230Z,5.78
2023-04-24T23:05:48.627Z,6.68
2023-04-24T23:08:16.440Z,12.55
2023-04-24T23:10:43.719Z,5.88
2023-04-24T23:13:10.918Z,9.18
2023-04-24T23:15:39.760Z,6.35
2023-04-24T23:18:07.404Z,4.45
2023-04-24T23:20:34.741Z,5.40
2023-04-24T23:23:02.198Z,4.70
2023-04-24T23:25:29.546Z,9.75
2023-04-24T23:27:56.981Z,10.77
2023-04-24T23:30:26.174Z,11.65
2023-04-24T23:32:53.448Z,10.23
2023-04-24T23:35:20.867Z,7.20
2023-04-24T23:37:48.661Z,6.45
2023-04-24T23:40:17.071Z,9.07
2023-04-24T23:42:45.466Z,8.18
2023-04-24T23:45:16.120Z,4.70
2023-04-24T23:47:43.548Z,13.73
2023-04-24T23:50:11.410Z,6.30
2023-04-24T23:52:38.865Z,9.00
2023-04-24T23:55:06.785Z,5.32
2023-04-24T23:57:34.124Z,7.22
